Time;durP1;ratioP1;P1;durP2;ratioP2;P2;SDS_P1;SDS_P2;PMS_P1;PMS_P2;Temp;Humidity;BMP_temperature;BMP_pressure;BME280_temperature;BME280_humidity;BME280_pressure;Samples;Min_cycle;Max_cycle;Signal;HPM_P1;HPM_P2
2023/01/06 00:00:39;;;;;;;12.23;7.50;;;21.60;86.00;;;;;;1926633;73;21049;-84
2023/01/06 00:03:10;;;;;;;11.33;6.92;;;21.60;85.70;;;;;;1931083;73;21073;-83
2023/01/06 00:05:40;;;;;;;11.08;6.62;;;21.50;86.20;;;;;;1925913;73;21088;-83
2023/01/06 00:08:11;;;;;;;10.38;5.97;;;21.50;86.30;;;;;;1936834;73;21057;-83
2023/01/06 00:10:42;;;;;;;10.78;7.05;;;21.50;85.90;;;;;;1926444;73;21591;-83
2023/01/06 00:13:13;;;;;;;8.98;5.95;;;21.50;86.00;;;;;;1943534;73;21080;-82
2023/01/06 00:15:43;;;;;;;8.40;5.95;;;21.50;86.20;;;;;;1937695;73;21073;-83
2023/01/06 00:18:15;;;;;;;11.50;6.67;;;21.50;86.00;;;;;;1950310;73;21537;-83
2023/01/06 00:20:45;;;;;;;9.48;6.22;;;21.50;86.20;;;;;;1932345;73;21123;-83
2023/01/06 00:23:16;;;;;;;11.05;6.37;;;21.50;86.30;;;;;;1945259;73;21127;-84
2023/01/06 00:25:51;;;;;;;9.00;5.92;;;21.50;86.00;;;;;;1948480;73;21123;-82
2023/01/06 00:28:22;;;;;;;10.82;5.72;;;21.50;86.00;;;;;;1949458;73;21536;-82
2023/01/06 00:30:53;;;;;;;11.65;6.45;;;21.60;86.30;;;;;;1946288;73;21053;-83
2023/01/06 00:33:25;;;;;;;9.83;6.15;;;21.60;86.20;;;;;;1940360;73;21152;-82
2023/01/06 00:35:58;;;;;;;9.05;5.62;;;21.60;86.00;;;;;;1940141;73;21591;-82
2023/01/06 00:38:30;;;;;;;9.80;5.65;;;21.60;85.80;;;;;;1927463;73;21192;-82
2023/01/06 00:41:03;;;;;;;12.40;6.65;;;21.60;86.20;;;;;;1947510;73;21069;-82
2023/01/06 00:43:34;;;;;;;13.30;6.75;;;21.60;86.20;;;;;;1954889;73;21054;-82
2023/01/06 00:46:06;;;;;;;13.28;7.58;;;21.70;86.20;;;;;;1944022;73;21691;-82
2023/01/06 00:48:36;;;;;;;11.45;7.20;;;21.80;85.80;;;;;;1943767;73;21141;-82
2023/01/06 00:51:07;;;;;;;10.10;6.95;;;21.80;85.60;;;;;;1951180;72;21065;-81
2023/01/06 00:53:39;;;;;;;10.85;6.10;;;21.80;86.60;;;;;;1937883;73;22104;-84
2023/01/06 00:56:10;;;;;;;12.85;6.70;;;21.80;85.50;;;;;;1938954;73;21163;-70
2023/01/06 00:58:41;;;;;;;10.75;6.83;;;21.80;85.30;;;;;;1930481;73;21112;-70
2023/01/06 01:01:13;;;;;;;12.55;6.67;;;21.80;85.90;;;;;;1939301;72;21658;-71
2023/01/06 01:03:44;;;;;;;12.53;6.97;;;21.80;85.80;;;;;;1933072;73;21505;-69
2023/01/06 01:06:15;;;;;;;76.80;12.23;;;21.80;85.70;;;;;;1940816;73;21191;-69
2023/01/06 01:08:47;;;;;;;14.63;6.80;;;21.80;85.90;;;;;;1933170;72;21545;-71
2023/01/06 01:14:07;;;;;;;12.03;6.75;;;21.90;85.80;;;;;;1933234;73;21139;-69
2023/01/06 01:16:39;;;;;;;10.18;6.67;;;21.90;85.70;;;;;;1943938;73;21077;-71
2023/01/06 01:19:11;;;;;;;10.13;5.78;;;21.90;85.50;;;;;;1942487;73;21201;-71
2023/01/06 01:21:42;;;;;;;10.70;6.28;;;22.00;85.30;;;;;;1942435;72;21579;-71
2023/01/06 01:24:13;;;;;;;13.75;7.05;;;22.00;85.40;;;;;;1933513;72;21077;-72
2023/01/06 01:26:45;;;;;;;26.85;7.60;;;22.00;85.10;;;;;;1934847;73;21132;-71
2023/01/06 01:29:17;;;;;;;12.70;6.85;;;22.00;85.00;;;;;;1937677;72;21172;-71
2023/01/06 01:31:51;;;;;;;9.25;6.30;;;22.00;85.00;;;;;;1942724;73;21143;-70
2023/01/06 01:34:23;;;;;;;12.20;7.10;;;22.00;84.90;;;;;;1939008;73;21162;-71
2023/01/06 01:36:55;;;;;;;12.28;6.37;;;22.00;85.30;;;;;;1932360;72;21354;-71
2023/01/06 01:39:28;;;;;;;13.28;6.97;;;22.00;84.70;;;;;;1938570;73;21045;-70
2023/01/06 01:42:00;;;;;;;11.53;7.10;;;22.10;84.90;;;;;;1937659;72;21109;-70
2023/01/06 01:45:04;;;;;;;15.68;6.70;;;22.10;84.80;;;;;;1944363;72;21107;-70
2023/01/06 01:47:43;;;;;;;10.13;6.95;;;22.10;84.90;;;;;;1940592;73;21092;-71
2023/01/06 01:50:49;;;;;;;11.85;6.50;;;22.20;84.60;;;;;;1938698;73;21565;-71
2023/01/06 01:53:25;;;;;;;10.65;6.42;;;22.30;83.80;;;;;;1937053;72;21193;-69
2023/01/06 01:55:58;;;;;;;12.63;7.25;;;22.30;83.90;;;;;;1945482;72;21181;-71
2023/01/06 01:58:32;;;;;;;13.70;6.40;;;22.40;83.60;;;;;;1870254;75;21155;-69
2023/01/06 02:01:04;;;;;;;9.43;5.95;;;22.40;83.70;;;;;;1886312;75;21127;-70
2023/01/06 02:03:35;;;;;;;9.05;5.65;;;22.50;83.40;;;;;;1895926;75;21138;-71
2023/01/06 02:06:26;;;;;;;11.43;6.05;;;22.60;82.60;;;;;;1894115;75;21188;-70
2023/01/06 02:12:07;;;;;;;7.58;4.35;;;22.70;82.30;;;;;;1800789;78;21804;-73
2023/01/06 02:14:39;;;;;;;8.53;4.72;;;22.70;81.70;;;;;;1811008;78;21179;-73
2023/01/06 02:17:19;;;;;;;12.15;4.28;;;22.80;80.90;;;;;;1805485;78;21099;-72
2023/01/06 02:20:01;;;;;;;11.90;4.35;;;22.80;79.90;;;;;;1802128;78;21159;-71
2023/01/06 02:23:08;;;;;;;7.17;4.22;;;22.80;79.60;;;;;;1831759;77;21541;-69
2023/01/06 02:26:11;;;;;;;7.42;4.58;;;22.80;79.80;;;;;;1760754;80;21236;-71
2023/01/06 02:28:54;;;;;;;9.60;4.40;;;22.90;79.60;;;;;;1830934;77;21159;-71
2023/01/06 02:31:47;;;;;;;11.35;4.80;;;23.00;79.40;;;;;;1852896;76;21224;-72
2023/01/06 02:34:26;;;;;;;7.58;4.65;;;23.00;79.40;;;;;;1839180;76;21132;-70
2023/01/06 02:37:08;;;;;;;6.83;4.33;;;23.10;79.40;;;;;;1842694;76;21244;-68
2023/01/06 02:39:41;;;;;;;8.25;4.45;;;23.10;79.10;;;;;;1839533;76;21171;-72
2023/01/06 02:42:21;;;;;;;8.10;4.87;;;23.20;79.10;;;;;;1846275;76;21115;-70
2023/01/06 02:44:57;;;;;;;8.18;4.58;;;23.30;79.20;;;;;;1844183;76;21119;-70
2023/01/06 02:47:36;;;;;;;8.00;4.58;;;23.40;78.80;;;;;;1845676;76;21758;-71
2023/01/06 02:50:13;;;;;;;11.65;5.45;;;23.40;78.60;;;;;;1772185;77;21278;-70
2023/01/06 02:52:46;;;;;;;9.80;4.22;;;23.50;78.20;;;;;;1823661;77;21138;-70
2023/01/06 02:55:35;;;;;;;8.65;5.40;;;23.50;78.00;;;;;;1789517;78;21673;-69
2023/01/06 02:58:08;;;;;;;9.50;5.33;;;23.50;77.60;;;;;;1805652;78;21264;-70
2023/01/06 03:00:56;;;;;;;10.25;4.62;;;23.60;77.70;;;;;;1828721;77;21108;-69
2023/01/06 03:03:29;;;;;;;7.97;4.50;;;23.60;77.40;;;;;;1824472;77;21176;-70
2023/01/06 03:06:05;;;;;;;12.40;4.80;;;23.70;77.30;;;;;;1845440;76;21136;-68
2023/01/06 03:08:39;;;;;;;7.78;4.40;;;23.70;76.70;;;;;;1837849;76;21603;-69
2023/01/06 03:11:13;;;;;;;7.85;4.60;;;23.70;76.00;;;;;;1844544;76;21127;-69
2023/01/06 03:13:50;;;;;;;7.17;4.15;;;23.80;76.10;;;;;;1822654;77;21206;-70
2023/01/06 03:16:21;;;;;;;7.53;4.08;;;23.80;76.10;;;;;;1822363;77;21177;-69
2023/01/06 03:18:54;;;;;;;8.58;4.12;;;23.90;75.70;;;;;;1815310;77;21220;-70
2023/01/06 03:21:27;;;;;;;4.08;3.12;;;23.90;74.80;;;;;;1836293;76;21741;-70
2023/01/06 03:23:59;;;;;;;7.45;3.50;;;24.00;73.80;;;;;;1833697;76;21104;-70
2023/01/06 03:26:31;;;;;;;8.95;3.52;;;24.10;74.80;;;;;;1839619;76;21215;-70
2023/01/06 03:29:05;;;;;;;6.20;3.42;;;24.20;73.10;;;;;;1835971;76;21182;-67
2023/01/06 03:31:42;;;;;;;6.35;2.70;;;24.20;72.60;;;;;;1835903;76;21175;-70
2023/01/06 03:34:31;;;;;;;7.67;3.12;;;24.30;72.40;;;;;;1822759;77;21147;-69
2023/01/06 03:37:21;;;;;;;6.70;3.12;;;24.40;71.90;;;;;;1823233;77;21158;-69
2023/01/06 03:39:57;;;;;;;4.58;3.05;;;24.50;71.10;;;;;;1818613;77;21490;-68
2023/01/06 03:45:34;;;;;;;4.92;2.62;;;24.70;70.70;;;;;;1838630;76;21160;-69
2023/01/06 03:48:14;;;;;;;5.22;2.83;;;24.70;70.20;;;;;;1838968;76;21765;-69
2023/01/06 03:50:48;;;;;;;5.62;2.80;;;24.80;70.10;;;;;;1818570;77;21084;-69
2023/01/06 03:53:32;;;;;;;7.47;2.37;;;25.00;69.00;;;;;;1823727;77;21579;-69
2023/01/06 03:56:38;;;;;;;7.50;2.60;;;25.10;68.30;;;;;;1815237;77;21721;-69
2023/01/06 03:59:14;;;;;;;6.92;2.05;;;25.20;68.00;;;;;;1786619;79;21813;-68
2023/01/06 04:01:46;;;;;;;5.97;2.52;;;25.40;66.90;;;;;;1817188;77;21591;-70
2023/01/06 04:04:18;;;;;;;8.90;2.17;;;25.60;66.10;;;;;;1819180;77;21080;-69
2023/01/06 04:06:50;;;;;;;4.72;2.10;;;25.70;65.30;;;;;;1818969;77;21269;-69
2023/01/06 04:09:21;;;;;;;12.47;2.22;;;25.80;65.10;;;;;;1836786;76;21099;-70
2023/01/06 04:14:41;;;;;;;4.00;1.90;;;26.00;64.90;;;;;;1799140;78;21198;-69
2023/01/06 04:17:12;;;;;;;6.90;1.75;;;26.00;64.60;;;;;;1794261;78;21207;-68
2023/01/06 04:19:44;;;;;;;3.00;1.70;;;26.10;64.60;;;;;;1798627;78;21234;-69
2023/01/06 04:22:18;;;;;;;4.85;1.98;;;26.20;63.90;;;;;;1839768;76;21079;-70
2023/01/06 04:24:49;;;;;;;5.72;2.17;;;26.30;63.10;;;;;;1841750;76;21136;-70
2023/01/06 04:27:24;;;;;;;7.25;2.27;;;26.30;63.40;;;;;;1840395;76;21158;-69
2023/01/06 04:29:55;;;;;;;4.30;2.02;;;26.30;63.10;;;;;;1844040;76;21201;-70
2023/01/06 04:32:27;;;;;;;6.12;2.08;;;26.40;63.10;;;;;;1846814;76;21176;-70
2023/01/06 04:34:58;;;;;;;7.58;2.33;;;26.40;62.50;;;;;;1836407;76;21179;-68
2023/01/06 04:37:29;;;;;;;9.15;1.95;;;26.50;63.60;;;;;;1843742;76;21237;-68
2023/01/06 04:40:00;;;;;;;5.40;2.00;;;26.60;61.30;;;;;;1845003;76;21140;-69
2023/01/06 04:43:02;;;;;;;5.30;2.02;;;26.70;62.10;;;;;;1832158;77;21285;-68
2023/01/06 04:45:09;;;;;;;6.33;2.67;;;26.80;62.20;;;;;;1825205;77;21222;-68
2023/01/06 04:47:38;;;;;;;4.60;1.98;;;26.80;61.80;;;;;;1843437;76;21197;-71
2023/01/06 04:50:10;;;;;;;4.90;1.80;;;26.90;62.10;;;;;;1844926;76;21076;-67
2023/01/06 04:52:41;;;;;;;5.40;2.08;;;27.00;61.30;;;;;;1843423;76;21175;-68
2023/01/06 04:55:16;;;;;;;5.60;2.10;;;27.10;61.10;;;;;;1839319;76;21647;-68
2023/01/06 04:57:47;;;;;;;6.72;2.15;;;27.10;61.10;;;;;;1792724;78;21211;-69
2023/01/06 05:00:19;;;;;;;7.80;2.40;;;27.10;60.30;;;;;;1839185;76;21138;-71
2023/01/06 05:02:51;;;;;;;6.78;2.62;;;27.20;60.60;;;;;;1828146;77;21190;-70
2023/01/06 05:05:21;;;;;;;8.78;2.40;;;27.20;60.60;;;;;;1826793;77;21140;-71
2023/01/06 05:07:55;;;;;;;6.50;1.80;;;27.30;60.40;;;;;;1794458;78;21264;-69
2023/01/06 05:10:26;;;;;;;5.05;1.82;;;27.30;60.00;;;;;;1826647;77;21215;-69
2023/01/06 05:12:58;;;;;;;6.90;2.17;;;27.40;59.50;;;;;;1827532;77;21203;-71
2023/01/06 05:15:29;;;;;;;5.40;2.20;;;27.40;60.20;;;;;;1791002;78;21258;-70
2023/01/06 05:18:02;;;;;;;7.35;2.50;;;27.50;60.10;;;;;;1765273;80;21655;-70
2023/01/06 05:20:33;;;;;;;6.28;1.87;;;27.60;60.10;;;;;;1803460;78;21199;-70
2023/01/06 05:23:04;;;;;;;3.95;1.82;;;27.70;59.40;;;;;;1794199;78;21702;-69
2023/01/06 05:25:35;;;;;;;3.27;1.65;;;27.70;59.10;;;;;;1789925;78;21106;-70
2023/01/06 05:28:08;;;;;;;3.05;1.82;;;27.80;59.10;;;;;;1824088;77;21086;-69
2023/01/06 05:30:40;;;;;;;6.62;2.05;;;27.90;59.10;;;;;;1786391;78;21162;-70
2023/01/06 05:33:11;;;;;;;6.10;1.98;;;27.90;58.90;;;;;;1800751;78;21098;-69
2023/01/06 05:35:42;;;;;;;7.70;1.80;;;28.00;58.50;;;;;;1837093;77;21277;-68
2023/01/06 05:38:13;;;;;;;6.92;2.67;;;28.10;57.80;;;;;;1792083;78;21626;-69
2023/01/06 05:40:43;;;;;;;4.15;1.87;;;28.10;57.00;;;;;;1785832;78;21290;-69
2023/01/06 05:43:14;;;;;;;3.30;1.80;;;28.20;57.30;;;;;;1800071;78;21180;-70
2023/01/06 05:45:45;;;;;;;5.17;2.30;;;28.20;57.90;;;;;;1790693;78;21190;-70
2023/01/06 05:48:17;;;;;;;3.12;2.02;;;28.20;57.50;;;;;;1834620;77;21127;-69
2023/01/06 05:50:49;;;;;;;3.98;1.95;;;28.20;57.60;;;;;;1759678;80;21717;-68
2023/01/06 05:53:20;;;;;;;2.72;2.00;;;28.20;57.70;;;;;;1830623;77;21135;-70
2023/01/06 05:55:51;;;;;;;7.55;2.27;;;28.20;58.00;;;;;;1760190;80;21181;-72
2023/01/06 05:58:22;;;;;;;3.58;2.08;;;28.20;58.00;;;;;;1827439;77;21630;-69
2023/01/06 06:00:53;;;;;;;4.87;1.77;;;28.20;57.90;;;;;;1784571;79;21159;-68
2023/01/06 06:03:24;;;;;;;8.45;2.22;;;28.00;57.70;;;;;;1803075;78;21169;-68
2023/01/06 06:05:55;;;;;;;4.72;2.08;;;28.00;58.00;;;;;;1841788;77;21179;-69
2023/01/06 06:08:26;;;;;;;5.03;2.20;;;28.00;58.80;;;;;;1775394;80;21252;-70
2023/01/06 06:10:57;;;;;;;10.95;3.25;;;28.00;58.30;;;;;;1763753;80;21663;-70
2023/01/06 06:13:28;;;;;;;5.03;2.58;;;28.10;58.50;;;;;;1823884;76;21225;-69
2023/01/06 06:16:08;;;;;;;6.92;2.02;;;28.20;58.90;;;;;;1838765;76;21127;-68
2023/01/06 06:18:44;;;;;;;9.03;2.20;;;28.20;57.60;;;;;;1840742;76;21496;-69
2023/01/06 06:21:20;;;;;;;5.33;3.00;;;28.10;57.70;;;;;;1835568;76;21142;-69
2023/01/06 06:23:53;;;;;;;4.05;2.50;;;27.90;58.10;;;;;;1837316;76;21198;-68
2023/01/06 06:26:26;;;;;;;7.12;3.27;;;27.80;58.50;;;;;;1834057;76;21635;-68
2023/01/06 06:28:57;;;;;;;7.90;2.95;;;27.80;58.90;;;;;;1838465;76;21069;-68
2023/01/06 06:31:29;;;;;;;5.53;2.85;;;27.80;58.80;;;;;;1837889;76;21178;-68
2023/01/06 06:34:05;;;;;;;12.15;3.30;;;27.80;59.10;;;;;;1839935;76;21170;-68
2023/01/06 06:36:36;;;;;;;7.40;2.70;;;27.80;58.70;;;;;;1818314;77;21168;-69
2023/01/06 06:39:07;;;;;;;7.17;2.87;;;27.80;58.40;;;;;;1783525;78;21284;-69
2023/01/06 06:41:39;;;;;;;10.18;3.50;;;27.70;58.70;;;;;;1783961;78;21156;-69
2023/01/06 06:44:10;;;;;;;6.97;2.67;;;27.70;59.00;;;;;;1819238;77;21225;-69
2023/01/06 06:46:41;;;;;;;5.83;2.95;;;27.70;59.00;;;;;;1840262;76;21705;-69
2023/01/06 06:49:13;;;;;;;5.40;2.98;;;27.70;59.20;;;;;;1840849;76;21706;-69
2023/01/06 06:51:48;;;;;;;4.33;2.67;;;27.70;59.70;;;;;;1841722;76;21159;-67
2023/01/06 06:54:19;;;;;;;9.38;3.62;;;27.80;59.00;;;;;;1841654;76;22608;-69
2023/01/06 06:56:50;;;;;;;4.75;2.70;;;27.90;59.00;;;;;;1819965;77;21149;-69
2023/01/06 06:59:21;;;;;;;4.92;3.20;;;27.80;58.80;;;;;;1791861;78;21604;-69
2023/01/06 07:01:53;;;;;;;6.03;3.33;;;27.70;59.10;;;;;;1826751;77;21604;-67
2023/01/06 07:04:24;;;;;;;5.12;2.72;;;27.60;59.40;;;;;;1824756;77;21197;-68
2023/01/06 07:06:58;;;;;;;5.97;2.95;;;27.50;59.40;;;;;;1824362;77;21203;-69
2023/01/06 07:09:30;;;;;;;8.80;2.98;;;27.40;59.80;;;;;;1820379;77;21711;-70
2023/01/06 07:12:02;;;;;;;4.25;3.00;;;27.40;59.60;;;;;;1819979;77;21142;-69
2023/01/06 07:14:33;;;;;;;5.53;3.25;;;27.40;60.00;;;;;;1817715;77;21215;-69
2023/01/06 07:17:04;;;;;;;5.00;2.85;;;27.30;60.30;;;;;;1825597;77;21165;-68
2023/01/06 07:19:35;;;;;;;5.28;2.67;;;27.30;60.20;;;;;;1856614;76;21244;-69
2023/01/06 07:22:06;;;;;;;4.70;2.25;;;27.30;59.90;;;;;;1858946;76;21253;-70
2023/01/06 07:24:38;;;;;;;8.23;3.30;;;27.20;59.80;;;;;;1855593;76;21259;-69
2023/01/06 07:27:10;;;;;;;4.37;2.80;;;27.20;60.50;;;;;;1822022;77;21096;-69
2023/01/06 07:29:42;;;;;;;7.37;2.77;;;27.10;60.30;;;;;;1824959;77;21181;-69
2023/01/06 07:32:16;;;;;;;7.60;2.52;;;27.10;60.50;;;;;;1821053;77;21168;-69
2023/01/06 07:34:47;;;;;;;5.22;2.45;;;27.00;60.40;;;;;;1821882;77;21190;-71
2023/01/06 07:37:19;;;;;;;6.22;2.55;;;27.10;60.60;;;;;;1858172;76;21692;-69
2023/01/06 07:40:03;;;;;;;5.33;2.87;;;27.00;60.60;;;;;;1822483;77;21764;-70
2023/01/06 07:42:36;;;;;;;6.65;4.22;;;27.00;60.70;;;;;;1856720;76;21185;-69
2023/01/06 07:45:10;;;;;;;6.22;3.60;;;26.90;60.60;;;;;;1855171;76;21211;-68
2023/01/06 07:47:41;;;;;;;4.85;2.40;;;26.90;60.90;;;;;;1819943;77;21456;-68
2023/01/06 07:50:14;;;;;;;7.65;3.08;;;26.90;61.10;;;;;;1825051;76;21200;-68
2023/01/06 07:52:45;;;;;;;6.55;2.98;;;26.90;61.40;;;;;;1818555;77;21122;-67
2023/01/06 07:55:16;;;;;;;4.85;3.00;;;26.90;61.40;;;;;;1858635;76;21118;-70
2023/01/06 07:57:51;;;;;;;4.65;2.58;;;26.90;60.90;;;;;;1821583;77;21166;-68
2023/01/06 08:00:22;;;;;;;9.80;3.22;;;26.90;60.80;;;;;;1858231;76;21734;-68
2023/01/06 08:02:56;;;;;;;6.85;3.12;;;26.90;61.20;;;;;;1819841;77;21131;-70
2023/01/06 08:05:27;;;;;;;5.35;2.72;;;26.90;61.00;;;;;;1786837;79;21099;-70
2023/01/06 08:07:59;;;;;;;3.85;2.90;;;27.00;60.80;;;;;;1816970;77;21159;-69
2023/01/06 08:10:30;;;;;;;4.58;2.92;;;26.90;61.20;;;;;;1855822;76;21254;-71
2023/01/06 08:13:01;;;;;;;5.58;2.92;;;27.00;60.90;;;;;;1818155;77;21165;-69
2023/01/06 08:15:33;;;;;;;4.62;2.85;;;26.90;60.80;;;;;;1812742;77;21630;-69
2023/01/06 08:18:05;;;;;;;10.48;4.45;;;26.90;61.10;;;;;;1830585;77;21629;-69
2023/01/06 08:20:36;;;;;;;6.55;3.15;;;26.90;61.00;;;;;;1833959;77;21103;-68
2023/01/06 08:23:10;;;;;;;7.00;2.90;;;26.90;61.10;;;;;;1833977;77;21157;-68
2023/01/06 08:25:40;;;;;;;5.33;2.98;;;26.80;61.30;;;;;;1829760;77;21599;-68
2023/01/06 08:28:13;;;;;;;4.20;2.70;;;26.90;61.70;;;;;;1802676;78;21087;-68
2023/01/06 08:30:44;;;;;;;8.98;2.92;;;26.80;61.60;;;;;;1832004;77;21612;-69
2023/01/06 08:33:18;;;;;;;4.60;3.02;;;26.80;61.40;;;;;;1803358;78;21146;-69
2023/01/06 08:35:50;;;;;;;3.95;2.67;;;26.80;61.40;;;;;;1828283;77;21680;-68
2023/01/06 08:38:20;;;;;;;9.78;3.10;;;26.80;61.60;;;;;;1804050;77;21800;-68
2023/01/06 08:40:53;;;;;;;5.85;2.83;;;26.80;61.60;;;;;;1826401;77;21221;-69
2023/01/06 08:43:24;;;;;;;5.28;3.12;;;26.70;61.80;;;;;;1793635;78;21209;-68
2023/01/06 08:46:01;;;;;;;6.00;2.92;;;26.70;61.80;;;;;;1829325;77;21064;-68
2023/01/06 08:48:32;;;;;;;5.25;3.20;;;26.70;62.00;;;;;;1831900;77;21154;-69
2023/01/06 08:51:15;;;;;;;5.78;3.20;;;26.70;62.00;;;;;;1823399;77;21095;-68
2023/01/06 08:53:46;;;;;;;6.08;4.12;;;26.60;62.40;;;;;;1824169;77;21076;-68
2023/01/06 08:56:23;;;;;;;7.22;3.92;;;26.70;62.60;;;;;;1793642;78;21101;-68
2023/01/06 08:58:57;;;;;;;;;;;26.60;62.60;;;;;;1833225;77;21131;-68
2023/01/06 09:01:33;;;;;;;9.73;4.90;;;26.60;62.70;;;;;;1792549;78;20297;-69
2023/01/06 09:04:06;;;;;;;9.83;4.97;;;26.50;62.80;;;;;;1823646;77;21913;-69
2023/01/06 09:06:38;;;;;;;9.58;5.33;;;26.50;63.00;;;;;;1825170;77;21193;-69
2023/01/06 09:09:10;;;;;;;7.55;4.22;;;26.50;63.00;;;;;;1827399;77;21716;-70
2023/01/06 09:11:42;;;;;;;10.53;4.65;;;26.50;63.30;;;;;;1824649;77;21238;-70
2023/01/06 09:14:13;;;;;;;10.20;5.08;;;26.50;63.40;;;;;;1822282;77;21301;-70
2023/01/06 09:16:47;;;;;;;5.87;4.05;;;26.50;63.70;;;;;;1779699;79;21158;-70
2023/01/06 09:19:19;;;;;;;9.33;4.58;;;26.50;63.60;;;;;;1808222;78;21241;-70
2023/01/06 09:21:50;;;;;;;7.08;3.72;;;26.50;63.50;;;;;;1816237;78;21745;-70
2023/01/06 09:24:21;;;;;;;6.17;4.17;;;26.40;63.40;;;;;;1808708;78;21229;-70
2023/01/06 09:26:52;;;;;;;8.10;4.10;;;26.40;63.50;;;;;;1813030;78;21128;-70
2023/01/06 09:29:23;;;;;;;7.37;4.33;;;26.30;63.50;;;;;;1778703;79;21628;-70
2023/01/06 09:31:54;;;;;;;8.58;4.40;;;26.30;63.90;;;;;;1779455;79;21172;-69
2023/01/06 09:34:25;;;;;;;8.00;4.55;;;26.30;64.00;;;;;;1817669;78;21143;-69
2023/01/06 09:37:00;;;;;;;6.72;4.40;;;26.30;64.00;;;;;;1780269;79;21819;-69
2023/01/06 09:39:32;;;;;;;7.08;4.70;;;26.30;64.10;;;;;;1815154;78;21174;-69
2023/01/06 09:42:20;;;;;;;10.95;4.67;;;26.30;64.20;;;;;;1811741;78;21661;-70
2023/01/06 09:45:00;;;;;;;9.90;5.05;;;26.20;64.20;;;;;;1817664;78;21107;-68
2023/01/06 09:47:39;;;;;;;6.95;3.75;;;26.20;64.40;;;;;;1814026;78;21246;-69
2023/01/06 09:50:21;;;;;;;5.90;4.35;;;26.20;64.60;;;;;;1779932;79;22054;-69
2023/01/06 09:53:02;;;;;;;11.40;4.53;;;26.20;64.50;;;;;;1811326;78;21095;-70
2023/01/06 09:55:36;;;;;;;6.08;4.22;;;26.20;64.50;;;;;;1782572;79;21659;-69
2023/01/06 09:58:18;;;;;;;7.83;4.87;;;26.20;64.50;;;;;;1777220;79;21400;-71
2023/01/06 10:00:53;;;;;;;6.05;4.03;;;26.20;64.60;;;;;;1801499;78;21240;-69
2023/01/06 10:03:28;;;;;;;6.92;4.03;;;26.10;64.60;;;;;;1803064;78;21156;-70
2023/01/06 10:06:07;;;;;;;15.50;4.58;;;26.10;64.50;;;;;;1783596;79;21627;-70
2023/01/06 10:09:00;;;;;;;10.45;4.20;;;26.10;64.40;;;;;;1814064;78;21595;-70
2023/01/06 10:11:42;;;;;;;9.85;4.20;;;26.10;64.50;;;;;;1771748;79;21155;-69
2023/01/06 10:14:32;;;;;;;8.15;4.17;;;26.10;64.60;;;;;;1768924;79;21185;-69
2023/01/06 10:17:38;;;;;;;6.67;4.10;;;26.10;64.30;;;;;;1842312;76;21187;-70
2023/01/06 10:20:31;;;;;;;8.45;3.72;;;26.00;64.10;;;;;;1840939;76;21136;-69
2023/01/06 10:23:35;;;;;;;7.70;3.98;;;26.00;64.30;;;;;;1840761;76;21084;-70
2023/01/06 10:26:20;;;;;;;8.70;4.28;;;26.00;64.40;;;;;;1844564;76;21080;-69
2023/01/06 10:28:53;;;;;;;8.35;4.20;;;25.90;64.50;;;;;;1827615;77;21172;-69
2023/01/06 10:31:26;;;;;;;7.95;4.45;;;25.90;64.70;;;;;;1790595;78;21293;-69
2023/01/06 10:34:01;;;;;;;9.73;4.70;;;25.90;64.80;;;;;;1794359;78;21532;-70
2023/01/06 10:36:36;;;;;;;10.82;6.20;;;25.90;64.90;;;;;;1827563;77;21100;-71
2023/01/06 10:39:15;;;;;;;8.85;5.33;;;25.90;65.10;;;;;;1834101;77;21150;-70
2023/01/06 10:41:52;;;;;;;7.15;4.80;;;25.80;65.20;;;;;;1827813;77;21828;-69
2023/01/06 10:44:23;;;;;;;7.58;5.75;;;25.80;65.30;;;;;;1799936;77;21139;-69
2023/01/06 10:46:54;;;;;;;8.78;5.50;;;25.80;65.30;;;;;;1838338;76;21226;-69
2023/01/06 10:49:26;;;;;;;9.00;5.87;;;25.80;65.50;;;;;;1842343;76;21848;-68
2023/01/06 10:52:02;;;;;;;8.45;5.47;;;25.70;65.50;;;;;;1828679;77;21127;-85
2023/01/06 10:54:37;;;;;;;9.68;6.30;;;25.70;65.50;;;;;;1826233;77;21147;-85
2023/01/06 10:57:12;;;;;;;7.85;5.97;;;25.70;65.60;;;;;;1826669;77;21555;-86
2023/01/06 11:00:22;;;;;;;9.35;7.05;;;25.60;65.60;;;;;;1792639;78;21092;-85
2023/01/06 11:02:55;;;;;;;13.25;10.13;;;25.60;65.80;;;;;;1796487;78;21150;-85
2023/01/06 11:05:29;;;;;;;14.40;11.85;;;25.60;65.80;;;;;;1797263;79;21131;-85
2023/01/06 11:08:06;;;;;;;23.50;16.37;;;25.60;66.00;;;;;;1799999;78;21217;-84
2023/01/06 11:10:42;;;;;;;37.58;24.23;;;25.60;66.10;;;;;;1800164;79;21258;-84
2023/01/06 11:13:31;;;;;;;18.57;15.00;;;25.50;66.10;;;;;;1798903;78;21121;-85
2023/01/06 11:16:08;;;;;;;21.97;16.57;;;25.50;66.20;;;;;;1789012;79;21167;-85
2023/01/06 11:18:40;;;;;;;18.77;15.30;;;25.50;66.40;;;;;;1835144;76;21581;-86
2023/01/06 11:21:15;;;;;;;21.57;16.80;;;25.50;66.50;;;;;;1845374;76;21663;-86
2023/01/06 11:23:48;;;;;;;24.70;17.75;;;25.40;66.60;;;;;;1842007;76;21263;-86
2023/01/06 11:26:31;;;;;;;22.87;16.37;;;25.40;66.80;;;;;;1839696;76;21222;-84
2023/01/06 11:32:23;;;;;;;19.42;12.73;;;25.40;67.20;;;;;;1836615;76;21204;-85
2023/01/06 11:35:00;;;;;;;17.57;11.88;;;25.30;67.30;;;;;;1839762;76;21639;-85
2023/01/06 11:37:36;;;;;;;20.23;10.72;;;25.30;67.40;;;;;;1835772;76;21241;-86
2023/01/06 11:40:31;;;;;;;16.48;10.82;;;25.30;67.70;;;;;;1839160;77;21451;-86
2023/01/06 11:43:04;;;;;;;16.15;10.15;;;25.20;67.80;;;;;;1836059;76;21607;-86
2023/01/06 11:45:56;;;;;;;17.85;10.72;;;25.20;68.10;;;;;;1841168;76;21692;-86
2023/01/06 11:48:32;;;;;;;15.10;11.60;;;25.20;68.20;;;;;;1816272;77;21148;-85
2023/01/06 11:51:05;;;;;;;18.07;11.57;;;25.10;68.30;;;;;;1819974;77;21277;-84
2023/01/06 11:53:38;;;;;;;15.58;11.28;;;25.20;68.50;;;;;;1820174;77;21156;-85
2023/01/06 11:56:15;;;;;;;17.77;12.82;;;25.10;68.70;;;;;;1816713;77;21180;-85
2023/01/06 11:58:57;;;;;;;18.50;12.15;;;25.10;68.60;;;;;;1816061;77;21182;-85
2023/01/06 12:02:01;;;;;;;20.75;13.08;;;25.10;68.90;;;;;;1824602;77;21179;-84
2023/01/06 12:04:37;;;;;;;19.00;12.78;;;25.10;68.90;;;;;;1819427;77;21817;-84
2023/01/06 12:07:25;;;;;;;21.12;13.88;;;25.10;68.80;;;;;;1803613;78;21156;-84
2023/01/06 12:09:58;;;;;;;21.15;12.80;;;25.10;68.90;;;;;;1781930;79;21155;-84
2023/01/06 12:12:35;;;;;;;18.55;11.97;;;25.00;69.00;;;;;;1828035;77;21171;-86
2023/01/06 12:15:08;;;;;;;20.95;13.08;;;25.00;68.90;;;;;;1825848;77;21147;-84
2023/01/06 12:17:42;;;;;;;19.62;12.00;;;25.00;69.00;;;;;;1829303;77;22183;-84
2023/01/06 12:20:19;;;;;;;17.07;11.30;;;25.00;69.00;;;;;;1831245;77;21292;-85
2023/01/06 12:22:58;;;;;;;17.98;11.48;;;24.90;69.10;;;;;;1831038;77;21162;-85
2023/01/06 12:25:34;;;;;;;17.65;11.50;;;24.90;69.00;;;;;;1828314;77;21698;-85
2023/01/06 12:28:26;;;;;;;14.67;11.30;;;24.80;69.20;;;;;;1789176;78;21104;-85
2023/01/06 12:31:07;;;;;;;14.55;11.05;;;24.80;69.30;;;;;;1821046;77;21152;-85
2023/01/06 12:33:46;;;;;;;15.60;10.13;;;24.80;69.50;;;;;;1789535;78;21123;-86
2023/01/06 12:36:29;;;;;;;14.23;10.30;;;24.80;69.60;;;;;;1819857;77;21086;-87
2023/01/06 12:39:03;;;;;;;13.15;10.43;;;24.70;69.70;;;;;;1792654;78;21164;-85
2023/01/06 12:41:40;;;;;;;13.30;10.00;;;24.70;69.80;;;;;;1817864;77;21606;-85
2023/01/06 12:44:28;;;;;;;13.28;10.23;;;24.70;69.70;;;;;;1822951;77;21201;-84
2023/01/06 12:47:30;;;;;;;16.87;10.63;;;24.70;69.80;;;;;;1787781;79;21469;-85
2023/01/06 12:50:32;;;;;;;14.03;10.08;;;24.70;69.90;;;;;;1792527;79;21190;-84
2023/01/06 12:53:19;;;;;;;17.70;10.48;;;24.70;70.10;;;;;;1821243;77;21217;-84
2023/01/06 12:56:19;;;;;;;18.92;12.58;;;24.60;70.10;;;;;;1822666;77;21133;-84
2023/01/06 12:59:04;;;;;;;13.10;10.45;;;24.60;70.30;;;;;;1829959;77;21147;-85
2023/01/06 13:01:43;;;;;;;16.03;11.07;;;24.60;70.10;;;;;;1824331;77;21166;-84
2023/01/06 13:04:49;;;;;;;13.32;9.78;;;24.60;70.40;;;;;;1825113;77;21134;-84
2023/01/06 13:07:35;;;;;;;14.38;10.53;;;24.60;70.30;;;;;;1779449;79;21300;-84
2023/01/06 13:10:23;;;;;;;16.17;10.88;;;24.50;70.50;;;;;;1819777;77;21143;-82
2023/01/06 13:13:03;;;;;;;19.45;10.95;;;24.60;70.80;;;;;;1818950;77;21167;-83
2023/01/06 13:15:36;;;;;;;15.50;11.30;;;24.50;70.90;;;;;;1822534;77;21574;-85
2023/01/06 13:18:22;;;;;;;15.88;11.55;;;24.50;71.10;;;;;;1822539;77;21167;-84
2023/01/06 13:20:58;;;;;;;20.08;12.33;;;24.50;71.10;;;;;;1822407;78;21099;-85
2023/01/06 13:23:58;;;;;;;15.48;11.63;;;24.50;71.60;;;;;;1854086;76;21146;-85
2023/01/06 13:26:40;;;;;;;15.03;11.22;;;24.50;70.90;;;;;;1852119;77;21134;-82
2023/01/06 13:29:22;;;;;;;14.93;11.45;;;24.40;71.00;;;;;;1845301;76;21163;-83
2023/01/06 13:32:22;;;;;;;14.47;11.53;;;24.40;70.90;;;;;;1839707;77;21139;-82
2023/01/06 13:34:56;;;;;;;22.17;11.80;;;24.40;70.80;;;;;;1850221;76;21190;-84
2023/01/06 13:37:32;;;;;;;20.70;10.93;;;24.40;70.90;;;;;;1843222;77;21270;-83
2023/01/06 13:40:11;;;;;;;17.50;11.12;;;24.30;71.20;;;;;;1846013;76;21151;-83